Time;durP1;ratioP1;P1;durP2;ratioP2;P2;SDS_P1;SDS_P2;PMS_P1;PMS_P2;Temp;Humidity;BMP_temperature;BMP_pressure;BME280_temperature;BME280_humidity;BME280_pressure;Samples;Min_cycle;Max_cycle;Signal;HPM_P1;HPM_P2
2022/04/22 00:01:15;;;;;;;11.83;6.23;;;;;;;10.04;65.12;100726.09;6527969;22;20428;-80
2022/04/22 00:03:46;;;;;;;9.50;6.40;;;;;;;10.02;65.22;100725.25;6527886;22;20007;-80
2022/04/22 00:06:18;;;;;;;9.97;6.73;;;;;;;10.23;64.70;100733.69;6527747;22;20505;-80
2022/04/22 00:08:49;;;;;;;8.93;6.50;;;;;;;10.11;65.60;100729.50;6527787;22;20022;-79
2022/04/22 00:11:29;;;;;;;17.73;7.77;;;;;;;10.01;65.44;100720.06;6527505;22;20371;-80
2022/04/22 00:14:04;;;;;;;8.57;7.07;;;;;;;9.95;66.05;100720.13;6527475;22;20015;-79
2022/04/22 00:16:35;;;;;;;11.60;7.05;;;;;;;9.98;66.20;100714.88;6527312;22;20007;-79
2022/04/22 00:19:06;;;;;;;8.53;6.50;;;;;;;9.82;66.57;100702.06;6527292;22;20003;-80
2022/04/22 00:21:41;;;;;;;9.57;6.97;;;;;;;9.95;66.30;100720.13;6527768;22;20212;-79
2022/04/22 00:24:14;;;;;;;9.32;6.97;;;;;;;9.88;66.67;100710.69;6527558;22;20003;-79
2022/04/22 00:26:45;;;;;;;;;;;;;;;9.91;63.44;100714.09;6528510;22;20010;-79
2022/04/22 00:29:17;;;;;;;11.27;7.53;;;;;;;9.84;66.74;100709.84;6528043;22;19911;-78
2022/04/22 00:31:48;;;;;;;12.40;7.63;;;;;;;9.72;67.19;100710.81;6528512;22;20239;-79
2022/04/22 00:34:20;;;;;;;9.97;7.23;;;;;;;9.69;67.50;100708.25;6525785;22;20096;-80
2022/04/22 00:36:51;;;;;;;12.00;7.43;;;;;;;9.82;67.20;100703.78;6526986;22;20007;-79
2022/04/22 00:39:23;;;;;;;10.43;7.77;;;;;;;9.73;67.75;100694.34;6527298;22;20014;-79
2022/04/22 00:41:54;;;;;;;10.13;7.20;;;;;;;9.63;67.95;100701.38;6528289;22;20718;-79
2022/04/22 00:44:26;;;;;;;8.73;7.33;;;;;;;9.70;68.23;100704.78;6527510;22;20034;-79
2022/04/22 00:46:57;;;;;;;9.13;8.07;;;;;;;9.67;68.06;100699.59;6527883;22;20087;-80
2022/04/22 00:49:28;;;;;;;10.57;7.77;;;;;;;9.65;68.15;100690.97;6527278;22;20003;-80
2022/04/22 00:52:03;;;;;;;10.00;7.57;;;;;;;9.52;68.91;100691.97;6527844;22;20014;-79
2022/04/22 00:54:35;;;;;;;12.18;7.85;;;;;;;9.56;68.90;100694.50;6527186;22;20368;-79
2022/04/22 00:57:06;;;;;;;13.67;8.20;;;;;;;9.35;69.85;100682.56;6527617;22;20000;-80
2022/04/22 00:59:38;;;;;;;10.53;7.93;;;;;;;9.34;70.06;100687.78;6527502;22;20015;-79
2022/04/22 01:02:10;;;;;;;11.27;8.07;;;;;;;9.41;69.86;100685.13;6528217;22;20031;-80
2022/04/22 01:10:23;;;;;;;12.70;8.55;;;;;;;9.32;70.50;100680.00;6492280;23;20461;-80
2022/04/22 01:12:54;;;;;;;10.00;8.13;;;;;;;9.16;71.06;100675.81;6491967;23;20040;-80
2022/04/22 01:15:26;;;;;;;13.97;7.73;;;;;;;9.13;71.49;100671.50;6492719;23;20079;-80
2022/04/22 01:17:58;;;;;;;11.37;7.83;;;;;;;9.15;71.18;100663.69;6493049;23;20085;-80
2022/04/22 01:20:29;;;;;;;11.60;8.37;;;;;;;9.12;71.70;100678.44;6492273;23;20074;-80
2022/04/22 01:23:00;;;;;;;10.10;8.13;;;;;;;9.04;72.14;100666.38;6493257;23;20019;-81
2022/04/22 01:25:32;;;;;;;12.20;8.60;;;;;;;8.98;72.71;100669.88;6492493;23;20012;-80
2022/04/22 01:28:03;;;;;;;12.67;8.93;;;;;;;9.13;71.96;100664.56;6492709;23;20023;-81
2022/04/22 01:30:35;;;;;;;10.77;8.10;;;;;;;9.18;72.03;100668.88;6492255;23;20016;-78
2022/04/22 01:33:06;;;;;;;15.50;9.17;;;;;;;9.22;72.02;100663.59;6492895;23;20014;-80
2022/04/22 01:35:37;;;;;;;17.20;9.40;;;;;;;9.12;72.44;100657.63;6492120;23;20032;-79
2022/04/22 01:38:09;;;;;;;10.83;8.07;;;;;;;9.09;72.55;100662.00;6494744;23;20012;-78
2022/04/22 01:40:40;;;;;;;11.83;9.17;;;;;;;9.13;72.90;100658.50;6493849;23;20433;-78
2022/04/22 01:43:11;;;;;;;12.73;10.03;;;;;;;9.20;72.65;100661.91;6494341;23;20012;-80
2022/04/22 01:45:43;;;;;;;11.67;8.43;;;;;;;9.26;72.50;100657.50;6494481;23;20579;-78
2022/04/22 01:48:14;;;;;;;14.47;9.07;;;;;;;9.29;72.49;100654.03;6523696;22;20007;-81
2022/04/22 01:50:46;;;;;;;14.43;9.20;;;;;;;9.18;72.83;100659.31;6529186;22;20004;-79
2022/04/22 01:53:17;;;;;;;15.47;9.27;;;;;;;9.09;73.40;100657.66;6529073;22;20003;-82
2022/04/22 01:55:49;;;;;;;12.60;9.27;;;;;;;9.05;73.31;100655.97;6529677;22;20904;-80
2022/04/22 01:58:20;;;;;;;10.77;9.07;;;;;;;8.98;74.03;100663.84;6529455;22;20011;-80
2022/04/22 02:00:51;;;;;;;12.10;8.57;;;;;;;8.99;73.71;100658.63;6529781;22;20011;-81
2022/04/22 02:03:23;;;;;;;12.40;9.23;;;;;;;8.93;73.62;100658.66;6529753;22;20429;-80
2022/04/22 02:05:54;;;;;;;12.13;9.13;;;;;;;8.82;74.66;100666.53;6529588;22;20003;-80
2022/04/22 02:08:25;;;;;;;14.73;9.63;;;;;;;8.79;75.03;100668.31;6528419;22;20107;-79
2022/04/22 02:10:57;;;;;;;13.90;9.37;;;;;;;8.76;74.95;100653.63;6530163;22;20023;-80
2022/04/22 02:13:28;;;;;;;11.17;9.60;;;;;;;8.73;75.30;100661.44;6529191;22;20024;-79
2022/04/22 02:16:00;;;;;;;11.60;9.67;;;;;;;8.61;75.54;100657.16;6530397;22;20030;-81
2022/04/22 02:18:31;;;;;;;12.97;9.83;;;;;;;8.56;76.08;100656.34;6530996;22;20511;-80
2022/04/22 02:21:06;;;;;;;13.40;10.00;;;;;;;8.54;76.30;100660.69;6531108;22;20011;-80
2022/04/22 02:23:40;;;;;;;11.45;10.13;;;;;;;8.49;76.63;100663.31;6531312;22;20161;-80
2022/04/22 02:26:11;;;;;;;12.82;9.73;;;;;;;8.44;77.12;100653.84;6531028;22;19999;-80
2022/04/22 02:28:42;;;;;;;12.60;9.97;;;;;;;8.43;77.34;100659.84;6531018;22;19999;-79
2022/04/22 02:31:14;;;;;;;12.10;10.50;;;;;;;8.36;77.63;100659.88;6531003;22;20008;-79
2022/04/22 02:33:45;;;;;;;12.33;9.57;;;;;;;8.49;77.59;100662.47;6529121;22;20003;-80
2022/04/22 02:36:16;;;;;;;13.40;10.10;;;;;;;8.47;78.03;100662.47;6530297;22;20492;-80
2022/04/22 02:38:48;;;;;;;11.83;10.03;;;;;;;8.56;77.72;100651.13;6528719;22;19999;-80
2022/04/22 02:47:03;;;;;;;13.68;10.98;;;;;;;8.63;77.57;100651.94;6528961;22;20066;-80
2022/04/22 02:49:34;;;;;;;;;;;;;;;8.62;75.19;100640.72;6529289;22;20061;-81
2022/04/22 02:52:06;;;;;;;14.20;11.20;;;;;;;8.40;77.79;100638.22;6529706;22;19903;-81
2022/04/22 02:54:37;;;;;;;17.87;11.90;;;;;;;8.33;77.85;100646.06;6529113;22;20133;-81
2022/04/22 02:57:09;;;;;;;16.73;10.67;;;;;;;8.28;78.29;100640.91;6529534;22;20003;-82
2022/04/22 02:59:42;;;;;;;11.10;9.93;;;;;;;8.30;78.49;100641.75;6529197;22;20417;-81
2022/04/22 03:02:14;;;;;;;15.90;11.02;;;;;;;8.17;79.15;100645.28;6529442;22;20242;-81
2022/04/22 03:04:47;;;;;;;13.17;10.80;;;;;;;8.06;79.55;100641.88;6530164;22;20066;-80
2022/04/22 03:07:19;;;;;;;13.00;10.80;;;;;;;8.00;80.06;100643.63;6529340;22;20610;-80
2022/04/22 03:09:50;;;;;;;14.20;11.67;;;;;;;8.02;80.05;100631.50;6528655;22;20049;-79
2022/04/22 03:12:22;;;;;;;14.87;11.97;;;;;;;8.01;80.07;100629.75;6519693;22;20020;-80
2022/04/22 03:14:53;;;;;;;18.93;11.97;;;;;;;7.90;80.74;100625.50;6497061;23;20015;-80
2022/04/22 03:17:24;;;;;;;15.57;12.37;;;;;;;7.83;81.13;100630.72;6497324;23;20652;-79
2022/04/22 03:19:56;;;;;;;16.63;12.50;;;;;;;7.80;81.28;100632.47;6496872;23;20008;-80
2022/04/22 03:22:27;;;;;;;15.03;12.03;;;;;;;7.77;nan;100627.28;6497644;23;20027;-81
2022/04/22 03:25:00;;;;;;;16.63;12.73;;;;;;;7.70;81.62;100623.84;6496182;23;20035;-81
2022/04/22 03:27:31;;;;;;;18.00;12.05;;;;;;;7.72;81.91;100621.25;6496764;23;20050;-80
2022/04/22 03:30:03;;;;;;;16.97;11.77;;;;;;;7.67;81.98;100622.13;6496046;23;20012;-80
2022/04/22 03:32:35;;;;;;;14.70;11.70;;;;;;;7.60;81.89;100624.72;6497458;23;20008;-81
2022/04/22 03:35:06;;;;;;;13.43;11.53;;;;;;;7.52;82.45;100622.19;6496999;23;20012;-80
2022/04/22 03:37:38;;;;;;;14.80;12.70;;;;;;;7.53;83.17;100630.81;6497114;23;20004;-80
2022/04/22 03:40:10;;;;;;;16.73;12.40;;;;;;;7.43;83.57;100610.09;6496016;23;20035;-81
2022/04/22 03:42:41;;;;;;;17.33;13.15;;;;;;;7.46;83.07;100609.22;6496705;23;20008;-81
2022/04/22 03:45:14;;;;;;;15.07;12.63;;;;;;;7.46;83.80;100619.59;6497565;23;20396;-79
2022/04/22 03:47:45;;;;;;;16.50;13.48;;;;;;;7.38;84.03;100624.81;6497138;23;20070;-79
2022/04/22 03:50:16;;;;;;;14.63;12.80;;;;;;;7.39;84.47;100623.06;6496316;23;20004;-79
2022/04/22 03:52:47;;;;;;;20.27;13.57;;;;;;;7.44;84.39;100622.19;6496169;23;20031;-80
2022/04/22 03:55:19;;;;;;;19.17;12.90;;;;;;;7.37;84.62;100617.03;6496588;23;20286;-79
2022/04/22 04:00:41;;;;;;;20.05;13.48;;;;;;;7.32;85.13;100601.47;6496851;23;20012;-80
2022/04/22 04:03:16;;;;;;;21.33;14.93;;;;;;;7.27;85.64;100600.63;6496971;23;20043;-81
2022/04/22 04:05:51;;;;;;;16.85;15.05;;;;;;;7.31;85.80;100604.97;6497103;23;20075;-80
2022/04/22 04:08:24;;;;;;;17.13;13.95;;;;;;;7.24;85.83;100598.91;6496563;23;20310;-80
2022/04/22 04:16:28;;;;;;;17.92;15.35;;;;;;;7.23;86.71;100601.50;6508192;23;20108;-80
2022/04/22 04:24:39;;;;;;;21.15;16.00;;;;;;;7.18;87.08;100603.22;6496731;23;20020;-80
2022/04/22 04:27:11;;;;;;;21.13;15.80;;;;;;;7.19;87.33;100605.81;6496736;23;20004;-80
2022/04/22 04:29:42;;;;;;;21.20;15.30;;;;;;;7.17;87.06;100598.94;6496106;23;20040;-80
2022/04/22 04:32:13;;;;;;;19.90;15.83;;;;;;;7.14;87.32;100588.56;6496503;23;20434;-80
2022/04/22 04:34:45;;;;;;;19.67;16.07;;;;;;;7.09;87.67;100589.44;6496555;23;20302;-81
2022/04/22 04:37:16;;;;;;;19.40;16.43;;;;;;;7.20;87.56;100602.38;6497267;23;20111;-81
2022/04/22 04:39:55;;;;;;;23.80;15.73;;;;;;;7.11;87.55;100585.09;6497543;23;20011;-82
2022/04/22 05:53:15;;;;;;;;;;;;;;;;;;;;;
2022/04/22 07:32:42;;;;;;;;;;;;;;;;;;;;;
2022/04/22 08:11:20;;;;;;;;;;;;;;;;;;;;;
2022/04/22 08:51:35;;;;;;;14.65;13.25;;;;;;;15.76;58.82;100556.09;6165713;24;20025;-84
2022/04/22 11:02:03;;;;;;;10.30;9.15;;;;;;;16.32;50.58;100452.25;6584259;22;20089;-82
2022/04/22 11:13:53;;;;;;;;;;;;;;;;;;;;;
2022/04/22 11:46:01;;;;;;;;;;;;;;;;;;;;;
2022/04/22 12:29:33;;;;;;;15.23;10.35;;;;;;;19.83;42.46;100400.66;6130957;24;20026;-81
2022/04/22 12:40:14;;;;;;;12.13;9.60;;;;;;;20.51;40.01;100401.13;5340437;27;20213;-83
2022/04/22 12:43:00;;;;;;;12.02;8.75;;;;;;;20.25;40.04;100384.16;5260256;28;20110;-82
2022/04/22 13:07:16;;;;;;;;;;;;;;;;;;;;;
2022/04/22 13:14:56;;;;;;;;;;;;;;;;;;;;;
2022/04/22 13:29:26;;;;;;;13.07;9.40;;;;;;;21.08;38.75;100342.00;4980399;30;20519;-82
2022/04/22 13:53:01;;;;;;;14.73;6.53;;;;;;;28.51;23.81;100327.75;5130288;29;20055;-82
2022/04/22 13:55:36;;;;;;;10.68;7.00;;;;;;;26.81;25.88;100324.53;5129671;29;20561;-81
2022/04/22 13:58:11;;;;;;;11.88;7.57;;;;;;;26.64;26.57;100328.69;5155383;29;20070;-81
2022/04/22 14:00:57;;;;;;;8.43;6.43;;;;;;;28.13;25.69;100316.19;5144705;29;20066;-79
2022/04/22 14:03:54;;;;;;;10.13;7.20;;;;;;;29.10;24.90;100321.09;5118748;29;20039;-83
2022/04/22 14:06:44;;;;;;;9.18;6.72;;;;;;;28.83;24.12;100321.13;5082609;29;20132;-81
2022/04/22 14:09:15;;;;;;;9.93;7.07;;;;;;;27.33;24.65;100310.16;5094840;29;20049;-82
2022/04/22 14:11:47;;;;;;;8.38;6.57;;;;;;;25.70;26.43;100307.31;5094799;29;20518;-82
2022/04/22 14:14:26;;;;;;;8.57;6.82;;;;;;;24.05;29.66;100306.31;5095478;29;20045;-82
2022/04/22 14:16:58;;;;;;;15.35;6.43;;;;;;;22.76;31.78;100312.19;5079531;29;20380;-83
2022/04/22 14:19:30;;;;;;;10.57;7.32;;;;;;;22.30;33.11;100310.09;5095612;29;20028;-83
2022/04/22 14:22:02;;;;;;;8.88;7.90;;;;;;;23.19;32.06;100301.13;5127204;28;20165;-80
2022/04/22 14:24:33;;;;;;;10.35;7.47;;;;;;;23.46;31.43;100306.22;5214338;28;20133;-78
2022/04/22 14:27:07;;;;;;;12.03;8.00;;;;;;;22.43;33.37;100318.06;5221929;28;20168;-79
2022/04/22 14:29:39;;;;;;;11.68;9.38;;;;;;;21.34;34.46;100319.13;5235414;28;20033;-78
2022/04/22 14:32:10;;;;;;;11.05;7.45;;;;;;;21.53;35.24;100310.84;5245429;28;20094;-78
2022/04/22 14:34:42;;;;;;;10.53;8.37;;;;;;;21.16;35.36;100302.63;5243871;28;20052;-79
2022/04/22 14:37:13;;;;;;;11.90;8.13;;;;;;;20.28;37.17;100310.72;5238800;28;20660;-79
2022/04/22 14:39:45;;;;;;;15.05;8.48;;;;;;;20.22;37.64;100285.50;5219151;28;20040;-80
2022/04/22 14:42:17;;;;;;;8.60;7.70;;;;;;;20.12;38.28;100302.00;5237128;28;20044;-79
2022/04/22 14:44:49;;;;;;;11.50;7.00;;;;;;;20.15;37.47;100309.78;5276419;28;20030;-80
2022/04/22 14:47:21;;;;;;;8.23;7.05;;;;;;;19.93;37.58;100300.50;5276099;28;20021;-79
2022/04/22 14:49:52;;;;;;;9.93;7.47;;;;;;;19.60;38.24;100293.56;5277211;28;20035;-80
2022/04/22 14:52:26;;;;;;;13.83;7.57;;;;;;;19.82;38.25;100295.00;5277658;28;20025;-80
2022/04/22 14:54:57;;;;;;;9.60;7.07;;;;;;;19.99;37.82;100294.81;5258230;28;20036;-80
2022/04/22 14:57:29;;;;;;;18.93;16.93;;;;;;;19.88;38.58;100310.47;5266698;28;20083;-80
2022/04/22 15:00:01;;;;;;;9.57;7.83;;;;;;;19.62;39.23;100302.25;5272647;28;20036;-80
2022/04/22 15:02:32;;;;;;;11.68;8.32;;;;;;;19.76;39.15;100303.28;5275451;28;20505;-80
2022/04/22 15:05:05;;;;;;;9.13;8.07;;;;;;;19.60;38.69;100300.66;5276528;28;20035;-81
2022/04/22 15:07:36;;;;;;;12.05;7.15;;;;;;;19.62;38.63;100301.41;5276237;28;20052;-81
2022/04/22 15:10:08;;;;;;;7.53;6.60;;;;;;;20.98;36.61;100303.78;5275530;28;20028;-80
2022/04/22 15:12:39;;;;;;;13.93;6.43;;;;;;;21.18;35.38;100291.91;5276401;28;20086;-82
2022/04/22 15:15:13;;;;;;;9.03;5.63;;;;;;;20.77;35.17;100291.81;5275032;28;20028;-81
2022/04/22 15:26:28;;;;;;;8.30;6.30;;;;;;;18.30;40.26;100293.72;5190863;28;20034;-79
2022/04/22 15:29:02;;;;;;;10.23;6.07;;;;;;;18.07;41.05;100294.91;5191799;28;20038;-78
2022/04/22 15:31:34;;;;;;;10.88;6.25;;;;;;;17.99;41.53;100292.66;5190360;28;20047;-79
2022/04/22 15:34:06;;;;;;;9.60;6.67;;;;;;;17.85;41.97;100296.84;5191667;28;20096;-80
2022/04/22 15:36:38;;;;;;;8.98;6.57;;;;;;;18.02;42.21;100285.44;5190728;28;20629;-79
2022/04/22 15:39:09;;;;;;;11.53;6.83;;;;;;;18.09;42.25;100293.88;5189762;28;20044;-80
2022/04/22 15:41:42;;;;;;;9.53;6.93;;;;;;;18.27;42.65;100297.34;5190670;28;20172;-80
2022/04/22 15:44:24;;;;;;;11.23;7.97;;;;;;;18.68;42.30;100298.72;5190493;28;20861;-79
2022/04/22 15:46:57;;;;;;;15.95;8.57;;;;;;;18.69;41.71;100287.22;5194630;28;20077;-80
2022/04/22 15:49:28;;;;;;;11.85;7.72;;;;;;;19.41;40.93;100295.56;5192496;28;20133;-80
2022/04/22 15:52:03;;;;;;;12.47;7.17;;;;;;;19.35;40.09;100287.97;5191347;28;20120;-82
2022/04/22 15:54:34;;;;;;;11.68;6.97;;;;;;;19.33;40.67;100289.88;5192097;28;20457;-79
2022/04/22 15:57:08;;;;;;;11.60;7.87;;;;;;;21.33;37.28;100287.41;5242466;28;20037;-79
2022/04/22 15:59:41;;;;;;;11.70;7.05;;;;;;;22.40;34.80;100298.75;5256359;28;20059;-78
2022/04/22 16:02:12;;;;;;;10.50;7.18;;;;;;;23.51;32.60;100281.94;5255788;28;20040;-80
2022/04/22 16:04:43;;;;;;;10.27;6.80;;;;;;;23.21;32.78;100283.25;5255901;28;20122;-80
2022/04/22 16:07:17;;;;;;;9.07;6.93;;;;;;;22.55;33.42;100275.56;5255573;28;20039;-80
2022/04/22 16:09:48;;;;;;;8.48;7.38;;;;;;;22.15;34.22;100285.44;5245762;28;20035;-82
2022/04/22 16:15:20;;;;;;;9.75;6.97;;;;;;;24.42;30.63;100288.28;5275512;28;20060;-79
2022/04/22 16:17:57;;;;;;;14.73;6.73;;;;;;;25.33;29.21;100283.69;5275888;28;20055;-80
2022/04/22 16:20:28;;;;;;;9.07;7.00;;;;;;;23.53;31.23;100282.66;5274945;28;20025;-78
2022/04/22 16:23:00;;;;;;;9.63;6.85;;;;;;;23.09;32.00;100286.81;5275749;28;20512;-80
2022/04/22 16:25:31;;;;;;;10.37;7.30;;;;;;;;;;5275837;28;20036;-79
2022/04/22 16:28:03;;;;;;;14.80;7.03;;;;;;;23.85;31.18;100280.25;5271095;28;20059;-79
2022/04/22 16:30:37;;;;;;;10.73;7.43;;;;;;;24.25;30.62;100275.44;5276112;28;20088;-78
2022/04/22 16:33:09;;;;;;;8.82;6.72;;;;;;;24.89;29.12;100283.69;5275979;28;20025;-81
2022/04/22 16:35:40;;;;;;;8.57;6.75;;;;;;;25.19;28.14;100271.47;5275778;28;20036;-79
2022/04/22 16:38:12;;;;;;;9.07;6.90;;;;;;;26.08;26.65;100281.84;5274292;28;20044;-79
2022/04/22 16:40:44;;;;;;;14.10;7.70;;;;;;;25.66;27.26;100285.38;5277048;28;20647;-80
2022/04/22 16:43:18;;;;;;;11.35;6.68;;;;;;;25.18;27.46;100280.47;5266818;28;20384;-79
2022/04/22 16:45:49;;;;;;;8.23;6.97;;;;;;;24.74;27.83;100283.06;5263890;28;20021;-79
2022/04/22 16:48:21;;;;;;;11.20;6.60;;;;;;;25.04;28.05;100278.06;5261374;28;20043;-80
2022/04/22 16:50:53;;;;;;;9.20;6.55;;;;;;;25.56;27.76;100292.44;5254838;28;20079;-79
2022/04/22 16:53:24;;;;;;;12.10;6.90;;;;;;;25.89;26.91;100281.69;5254784;28;20029;-80
2022/04/22 16:55:55;;;;;;;8.67;7.23;;;;;;;25.47;27.36;100269.19;5254789;28;20064;-79
2022/04/22 16:58:27;;;;;;;9.13;7.10;;;;;;;24.50;28.26;100277.88;5255433;28;20040;-78
2022/04/22 17:00:58;;;;;;;11.63;7.23;;;;;;;24.02;29.29;100276.28;5254523;28;20463;-79
2022/04/22 17:03:30;;;;;;;7.70;6.40;;;;;;;23.54;29.74;100272.84;5274823;28;20287;-80
2022/04/22 17:06:02;;;;;;;11.27;6.68;;;;;;;23.81;29.92;100273.44;5274823;28;20087;-79
2022/04/22 17:08:33;;;;;;;13.90;7.73;;;;;;;23.23;30.48;100268.06;5273661;28;20081;-79
2022/04/22 17:11:04;;;;;;;12.77;7.53;;;;;;;21.76;32.29;100272.16;5274630;28;20493;-79
2022/04/22 17:13:36;;;;;;;10.93;8.40;;;;;;;20.52;34.57;100268.66;5275995;28;20032;-78
2022/04/22 17:24:37;;;;;;;9.95;8.05;;;;;;;17.53;41.57;100274.72;5277281;28;20041;-80
2022/04/22 17:27:10;;;;;;;12.53;8.50;;;;;;;17.51;41.95;100284.50;5278567;28;20028;-78
2022/04/22 17:29:42;;;;;;;10.82;7.93;;;;;;;17.16;43.03;100276.53;5279244;28;20446;-80
2022/04/22 17:32:15;;;;;;;8.13;7.27;;;;;;;17.14;43.87;100271.34;5279493;28;20032;-82
2022/04/22 17:34:46;;;;;;;12.88;8.30;;;;;;;16.67;44.61;100282.31;5279125;28;20024;-80
2022/04/22 17:37:18;;;;;;;9.50;8.20;;;;;;;16.63;44.91;100275.50;5278841;28;20047;-81
2022/04/22 17:39:49;;;;;;;11.80;8.43;;;;;;;17.09;44.31;100280.41;5279774;28;20032;-81
2022/04/22 17:42:21;;;;;;;14.17;7.80;;;;;;;18.07;42.55;100282.56;5279762;28;20093;-80
2022/04/22 17:44:52;;;;;;;11.97;8.47;;;;;;;18.67;40.43;100265.34;5278777;28;20029;-81
2022/04/22 17:47:25;;;;;;;10.70;9.05;;;;;;;18.59;39.95;100278.94;5277228;28;20120;-80
2022/04/22 17:49:57;;;;;;;;;;;;;;;18.84;39.40;100278.50;5278932;28;20028;-79
2022/04/22 17:52:28;;;;;;;13.05;7.95;;;;;;;18.18;41.13;100271.47;5277953;28;19931;-80
2022/04/22 17:55:00;;;;;;;11.10;8.20;;;;;;;17.79;41.96;100267.28;5277802;28;20119;-80
2022/04/22 17:57:31;;;;;;;12.43;8.73;;;;;;;17.48;42.64;100271.47;5278322;28;20115;-80
2022/04/22 18:00:06;;;;;;;11.53;7.63;;;;;;;17.03;43.62;100278.06;5276506;28;20033;-79
2022/04/22 18:02:39;;;;;;;10.23;8.82;;;;;;;16.95;43.67;100270.50;5278800;28;20108;-80
2022/04/22 18:05:11;;;;;;;9.55;8.55;;;;;;;17.19;44.58;100270.28;5278198;28;20036;-80
2022/04/22 18:07:42;;;;;;;9.70;8.00;;;;;;;17.14;44.21;100273.13;5278694;28;20240;-80
2022/04/22 18:10:14;;;;;;;10.57;8.73;;;;;;;16.59;45.16;100271.28;5260888;28;20037;-81
2022/04/22 18:12:46;;;;;;;12.33;8.67;;;;;;;16.71;45.06;100273.38;5280337;28;20032;-79
2022/04/22 18:18:07;;;;;;;10.57;9.15;;;;;;;16.32;45.87;100282.13;5283758;28;20402;-81
2022/04/22 18:20:38;;;;;;;11.77;9.13;;;;;;;16.10;46.50;100287.50;5263861;28;20037;-81
2022/04/22 18:23:10;;;;;;;14.53;8.60;;;;;;;15.80;46.55;100290.53;5281407;28;20950;-80
2022/04/22 18:25:41;;;;;;;10.03;8.03;;;;;;;15.64;47.05;100287.66;5279049;28;20059;-79
2022/04/22 18:28:13;;;;;;;15.43;9.00;;;;;;;15.48;47.89;100290.06;5278112;28;20103;-80
2022/04/22 18:30:44;;;;;;;10.33;8.97;;;;;;;15.37;47.78;100288.78;5275027;28;20094;-80
2022/04/22 18:33:17;;;;;;;10.50;9.23;;;;;;;15.31;48.11;100285.50;5275137;28;20025;-79
2022/04/22 18:35:49;;;;;;;11.02;8.88;;;;;;;15.06;49.24;100288.25;5274925;28;20547;-80
2022/04/22 18:38:20;;;;;;;11.60;8.83;;;;;;;14.85;48.46;100286.47;5273181;28;20032;-82
2022/04/22 18:40:52;;;;;;;13.17;8.57;;;;;;;14.81;48.95;100290.97;5278132;28;21252;-82
2022/04/22 18:43:23;;;;;;;11.40;8.70;;;;;;;14.71;49.38;100286.97;5277299;28;20048;-78
2022/04/22 18:45:55;;;;;;;10.00;9.00;;;;;;;14.52;50.75;100294.66;5276505;28;20017;-81
2022/04/22 18:48:28;;;;;;;13.90;9.27;;;;;;;14.43;50.19;100298.47;5266130;28;20078;-80
2022/04/22 18:51:01;;;;;;;12.32;9.50;;;;;;;14.32;50.92;100298.84;5275688;28;20111;-79
2022/04/22 18:53:32;;;;;;;14.05;9.32;;;;;;;14.07;51.58;100298.03;5276964;28;20032;-80
2022/04/22 18:56:04;;;;;;;12.87;9.67;;;;;;;14.07;51.93;100301.50;5276739;28;20037;-78
2022/04/22 18:58:35;;;;;;;14.17;9.70;;;;;;;13.91;52.11;100302.94;5273067;28;20706;-80
2022/04/22 19:01:07;;;;;;;13.03;9.47;;;;;;;14.00;52.33;100303.47;5256346;28;20112;-80
2022/04/22 19:03:38;;;;;;;13.87;9.60;;;;;;;13.75;52.43;100308.72;5238104;28;20080;-80
2022/04/22 19:06:10;;;;;;;10.75;9.65;;;;;;;13.82;52.46;100315.44;5256380;28;20025;-80
2022/04/22 19:08:41;;;;;;;15.50;10.23;;;;;;;13.61;52.80;100317.00;5255801;28;20021;-78
2022/04/22 19:11:13;;;;;;;11.90;10.37;;;;;;;13.45;53.73;100316.66;5273447;28;20115;-78
2022/04/22 19:13:45;;;;;;;12.98;10.45;;;;;;;13.39;53.84;100314.22;5276124;28;20036;-78
2022/04/22 19:16:17;;;;;;;12.60;10.63;;;;;;;13.38;54.60;100317.78;5276629;28;20051;-78
2022/04/22 19:18:50;;;;;;;16.40;11.30;;;;;;;13.37;54.69;100316.03;5276587;28;20046;-78
2022/04/22 19:21:21;;;;;;;15.25;10.70;;;;;;;13.19;56.02;100316.59;5260378;28;20171;-78
2022/04/22 19:23:53;;;;;;;15.03;10.60;;;;;;;13.30;55.58;100322.38;5237859;28;20490;-79
2022/04/22 19:26:31;;;;;;;13.53;10.13;;;;;;;13.31;55.48;100317.09;5255572;28;20082;-78
2022/04/22 19:29:03;;;;;;;17.58;11.02;;;;;;;13.15;56.19;100321.06;5255774;28;20036;-77
2022/04/22 19:31:34;;;;;;;14.27;11.52;;;;;;;13.11;56.48;100320.31;5256505;28;20044;-77
2022/04/22 19:34:06;;;;;;;14.77;11.37;;;;;;;13.11;56.34;100320.31;5255597;28;20103;-77
2022/04/22 19:42:18;;;;;;;16.27;11.40;;;;;;;12.99;56.92;100319.81;5268052;28;20495;-77
2022/04/22 19:44:50;;;;;;;12.73;10.93;;;;;;;12.91;57.44;100328.78;5276987;28;20029;-78
2022/04/22 19:47:21;;;;;;;12.70;10.53;;;;;;;12.87;57.28;100327.13;5262048;28;20033;-77
2022/04/22 19:49:52;;;;;;;13.30;10.10;;;;;;;12.78;58.08;100322.16;5254563;28;20052;-77
2022/04/22 19:52:24;;;;;;;15.63;11.00;;;;;;;12.97;57.67;100327.72;5260595;28;20035;-78
2022/04/22 19:54:55;;;;;;;14.77;11.60;;;;;;;12.80;57.84;100327.34;5275583;28;20357;-78
2022/04/22 19:57:27;;;;;;;16.70;11.07;;;;;;;12.77;58.11;100326.53;5275796;28;20028;-79
2022/04/22 19:59:58;;;;;;;20.90;11.77;;;;;;;12.69;58.47;100319.84;5275817;28;20028;-78
2022/04/22 20:02:29;;;;;;;13.60;10.87;;;;;;;12.87;58.01;100332.38;5274918;28;20082;-79
2022/04/22 20:05:02;;;;;;;13.03;10.67;;;;;;;12.64;58.45;100326.94;5269736;28;20078;-78
2022/04/22 20:07:34;;;;;;;15.48;11.20;;;;;;;12.55;59.05;100330.69;5264025;28;20028;-77
2022/04/22 20:10:06;;;;;;;16.20;11.40;;;;;;;12.51;59.22;100323.81;5264502;28;20051;-78
2022/04/22 20:12:37;;;;;;;14.35;10.60;;;;;;;12.47;59.29;100324.81;5254959;28;20171;-76
2022/04/22 20:15:09;;;;;;;16.97;11.83;;;;;;;12.38;59.56;100336.38;5269217;28;20115;-81
2022/04/22 20:17:40;;;;;;;13.77;11.53;;;;;;;12.25;60.39;100328.00;5275777;28;20400;-79
2022/04/22 20:20:12;;;;;;;13.50;12.07;;;;;;;12.21;60.15;100326.38;5274484;28;20021;-78
2022/04/22 20:22:44;;;;;;;15.23;11.90;;;;;;;12.23;60.25;100324.56;5276095;28;20380;-79
2022/04/22 20:25:17;;;;;;;16.43;12.30;;;;;;;12.21;60.36;100332.47;5257607;28;20340;-79
2022/04/22 20:27:48;;;;;;;14.75;11.77;;;;;;;12.15;60.81;100332.63;5275647;28;20310;-79
2022/04/22 20:30:19;;;;;;;12.97;11.20;;;;;;;12.18;60.91;100332.53;5273802;28;20033;-78
2022/04/22 20:32:52;;;;;;;13.43;11.17;;;;;;;12.16;60.56;100328.28;5275701;28;20081;-78
2022/04/22 20:41:06;;;;;;;15.02;11.40;;;;;;;12.06;60.54;100332.88;5257665;28;20073;-77
2022/04/22 20:43:37;;;;;;;16.97;11.37;;;;;;;11.93;61.35;100329.72;5275773;28;20052;-79
2022/04/22 20:46:08;;;;;;;13.40;11.57;;;;;;;11.90;61.11;100337.59;5275491;28;20032;-79
2022/04/22 20:48:40;;;;;;;28.37;13.13;;;;;;;12.02;60.55;100342.53;5275888;28;20115;-79
2022/04/22 20:51:11;;;;;;;14.80;11.53;;;;;;;12.01;61.03;100337.34;5275589;28;20025;-79
2022/04/22 20:53:48;;;;;;;12.43;11.13;;;;;;;11.94;61.41;100348.88;5274495;28;20070;-79
2022/04/22 20:56:21;;;;;;;14.90;11.25;;;;;;;11.79;61.78;100350.94;5275237;28;20060;-79
2022/04/22 20:58:57;;;;;;;14.05;11.90;;;;;;;11.71;61.97;100352.03;5274799;28;20036;-78
2022/04/22 21:01:29;;;;;;;14.88;12.77;;;;;;;11.71;62.42;100347.66;5258747;28;20036;-79
2022/04/22 21:04:01;;;;;;;14.27;12.50;;;;;;;11.50;63.34;100349.88;5258352;28;20025;-78
2022/04/22 21:06:35;;;;;;;15.10;11.87;;;;;;;11.45;63.09;100348.28;5258637;28;20364;-79
2022/04/22 21:09:06;;;;;;;13.57;12.18;;;;;;;11.39;63.73;100343.19;5258823;28;20279;-78
2022/04/22 21:11:38;;;;;;;13.17;11.03;;;;;;;11.35;63.79;100342.41;5262078;28;20540;-79
2022/04/22 21:14:09;;;;;;;14.03;12.03;;;;;;;11.43;63.45;100342.22;5258366;28;20032;-78
2022/04/22 21:16:41;;;;;;;14.93;12.43;;;;;;;11.34;63.64;100338.09;5257919;28;20059;-78
2022/04/22 21:19:27;;;;;;;17.07;12.03;;;;;;;11.24;64.27;100339.19;5259046;28;20111;-78
2022/04/22 21:21:58;;;;;;;14.07;12.55;;;;;;;11.26;64.13;100345.22;5277034;28;20029;-78
2022/04/22 21:24:29;;;;;;;14.23;11.87;;;;;;;11.24;64.53;100347.03;5279348;28;20089;-77
2022/04/22 21:27:01;;;;;;;13.57;12.20;;;;;;;11.24;64.72;100350.47;5279102;28;20414;-77
2022/04/22 21:29:33;;;;;;;15.37;12.40;;;;;;;11.12;64.90;100350.75;5278618;28;20029;-78